createdAt,value
2023-03-26T00:01:12.180Z,96.22
2023-03-26T00:06:49.281Z,95.51
2023-03-26T00:12:13.161Z,95.53
2023-03-26T00:17:36.892Z,95.14
2023-03-26T00:22:51.512Z,95.15
2023-03-26T00:27:57.329Z,95.26
2023-03-26T00:33:17.661Z,95.29
2023-03-26T00:38:24.673Z,95.05
2023-03-26T00:43:56.635Z,95.38
2023-03-26T00:49:12.166Z,95.20
2023-03-26T00:54:42.851Z,95.39
2023-03-26T00:59:59.366Z,95.41
2023-03-26T01:05:34.951Z,95.71
2023-03-26T01:11:15.429Z,95.56
2023-03-26T01:16:59.646Z,95.70
2023-03-26T01:22:06.366Z,95.60
2023-03-26T01:27:48.454Z,95.56
2023-03-26T01:33:44.047Z,95.50
2023-03-26T01:39:00.596Z,95.53
2023-03-26T01:44:11.541Z,95.40
2023-03-26T01:49:35.405Z,95.29
2023-03-26T01:54:42.948Z,95.44
2023-03-26T02:00:12.878Z,95.77
2023-03-26T02:05:52.255Z,96.13
2023-03-26T02:11:13.144Z,96.53
2023-03-26T02:16:24.896Z,96.65
2023-03-26T02:21:28.700Z,96.79
2023-03-26T02:26:34.842Z,96.31
2023-03-26T02:32:20.650Z,95.83
2023-03-26T02:37:45.891Z,95.59
2023-03-26T02:43:03.533Z,96.06
2023-03-26T02:48:28.247Z,96.29
2023-03-26T02:53:47.202Z,96.61
2023-03-26T02:59:02.418Z,96.76
2023-03-26T03:04:36.852Z,96.50
2023-03-26T03:09:41.143Z,96.51
2023-03-26T03:15:36.097Z,96.27
2023-03-26T03:20:42.894Z,96.46
2023-03-26T03:25:50.944Z,96.32
2023-03-26T03:31:17.246Z,96.02
2023-03-26T03:36:28.123Z,95.72
2023-03-26T03:41:46.484Z,95.16
2023-03-26T03:47:02.223Z,94.88
2023-03-26T03:52:16.714Z,95.01
2023-03-26T03:58:04.302Z,95.21
2023-03-26T04:03:14.424Z,95.11
2023-03-26T04:08:19.156Z,94.88
2023-03-26T04:13:45.706Z,94.89
2023-03-26T04:19:48.718Z,95.06
2023-03-26T04:25:12.505Z,95.11
2023-03-26T04:30:38.393Z,95.23
2023-03-26T04:36:15.925Z,95.57
2023-03-26T04:41:40.942Z,95.55
2023-03-26T04:46:53.052Z,95.51
2023-03-26T04:52:06.140Z,95.23
2023-03-26T04:57:57.769Z,95.30
2023-03-26T05:03:35.894Z,95.26
2023-03-26T05:08:47.270Z,95.18
2023-03-26T05:14:12.447Z,94.86
2023-03-26T05:19:41.862Z,94.77
2023-03-26T05:24:48.720Z,94.46
2023-03-26T05:30:01.353Z,93.94
2023-03-26T05:35:09.512Z,93.91
2023-03-26T05:40:37.561Z,93.80
2023-03-26T05:46:04.424Z,93.77
2023-03-26T05:51:10.456Z,93.33
2023-03-26T05:56:58.077Z,92.97
2023-03-26T06:02:25.712Z,92.49
2023-03-26T06:08:15.256Z,92.17
2023-03-26T06:13:28.280Z,91.88
2023-03-26T06:18:32.205Z,91.80
2023-03-26T06:24:06.597Z,94.18
2023-03-26T06:29:33.103Z,95.84
2023-03-26T06:34:57.576Z,96.61
2023-03-26T06:40:00.977Z,97.07
2023-03-26T06:45:54.942Z,97.66
2023-03-26T06:51:41.231Z,98.09
2023-03-26T06:57:15.786Z,98.57
2023-03-26T07:02:38.211Z,99.69
2023-03-26T07:08:24.511Z,98.87
2023-03-26T07:13:48.355Z,97.36
2023-03-26T07:19:10.599Z,96.24
2023-03-26T07:24:20.094Z,96.04
2023-03-26T07:29:49.186Z,95.43
2023-03-26T07:35:52.794Z,94.22
2023-03-26T07:42:07.777Z,92.42
2023-03-26T07:47:35.998Z,91.56
2023-03-26T07:53:12.758Z,91.54
2023-03-26T07:59:15.017Z,90.60
2023-03-26T08:05:19.126Z,90.73
2023-03-26T08:11:18.102Z,90.29
2023-03-26T08:16:36.985Z,89.81
2023-03-26T08:22:09.979Z,89.70
2023-03-26T08:27:56.178Z,89.54
2023-03-26T08:33:11.735Z,89.69
2023-03-26T08:38:22.179Z,88.68
2023-03-26T08:44:13.432Z,87.87
2023-03-26T08:49:44.012Z,87.22
2023-03-26T08:55:16.207Z,86.90
2023-03-26T09:01:10.376Z,86.05
2023-03-26T09:07:12.267Z,86.18
2023-03-26T09:13:30.025Z,85.96
2023-03-26T09:19:24.186Z,86.56
2023-03-26T09:25:48.426Z,87.03
2023-03-26T09:31:21.570Z,84.86
2023-03-26T09:37:03.640Z,83.17
2023-03-26T09:42:31.029Z,81.78
2023-03-26T09:48:09.402Z,80.92
2023-03-26T09:53:24.608Z,81.03
2023-03-26T09:58:42.388Z,79.53
2023-03-26T10:04:12.081Z,78.65
2023-03-26T10:09:53.963Z,78.29
2023-03-26T10:15:52.997Z,77.42
2023-03-26T10:21:05.277Z,78.44
2023-03-26T10:26:11.438Z,77.52
2023-03-26T10:31:19.439Z,75.86
2023-03-26T10:43:24.317Z,75.45
2023-03-26T10:48:42.224Z,78.56
2023-03-26T10:53:58.735Z,81.51
2023-03-26T10:59:30.752Z,84.21
2023-03-26T11:04:50.648Z,83.55
2023-03-26T11:10:14.196Z,83.92
2023-03-26T11:15:51.776Z,84.47
2023-03-26T11:21:18.874Z,82.93
2023-03-26T11:27:15.306Z,79.35
2023-03-26T11:32:59.129Z,77.29
2023-03-26T11:38:13.870Z,76.91
2023-03-26T11:43:26.300Z,77.18
2023-03-26T11:48:57.659Z,76.84
2023-03-26T11:54:14.955Z,76.00
2023-03-26T11:59:24.634Z,74.92
2023-03-26T12:04:56.296Z,74.42
2023-03-26T12:10:21.224Z,72.89
2023-03-26T12:15:33.908Z,70.85
2023-03-26T12:20:38.882Z,71.28
2023-03-26T12:25:42.286Z,71.96
2023-03-26T12:31:05.567Z,72.51
2023-03-26T12:36:33.476Z,72.44
2023-03-26T12:44:41.819Z,72.14
2023-03-26T12:47:57.926Z,72.14
2023-03-26T12:53:20.263Z,72.75
2023-03-26T12:58:39.346Z,72.90
2023-03-26T13:04:17.724Z,73.26
2023-03-26T13:09:32.583Z,74.21
2023-03-26T13:15:47.093Z,73.68
2023-03-26T13:21:44.102Z,73.72
2023-03-26T13:27:29.930Z,72.49
2023-03-26T13:32:58.828Z,72.33
2023-03-26T13:38:58.931Z,72.88
2023-03-26T13:44:23.459Z,72.94
2023-03-26T13:49:54.855Z,72.11
2023-03-26T13:55:22.904Z,73.75
2023-03-26T14:00:41.328Z,75.55
2023-03-26T14:06:11.578Z,76.43
2023-03-26T14:11:22.780Z,75.47
2023-03-26T14:16:36.698Z,74.27
2023-03-26T14:22:07.869Z,73.19
2023-03-26T14:27:51.508Z,72.62
2023-03-26T14:33:10.560Z,70.93
2023-03-26T14:38:33.578Z,71.25
2023-03-26T14:43:59.716Z,69.05
2023-03-26T14:49:29.754Z,69.12
2023-03-26T15:00:46.812Z,69.46
2023-03-26T15:06:52.141Z,69.63
2023-03-26T15:12:12.420Z,69.36
2023-03-26T15:17:52.383Z,69.10
2023-03-26T15:23:40.092Z,68.73
2023-03-26T15:28:55.442Z,68.97
2023-03-26T15:34:48.674Z,68.75
2023-03-26T15:40:45.648Z,68.65
2023-03-26T15:46:33.413Z,69.42
2023-03-26T15:52:16.082Z,69.79
2023-03-26T15:57:57.812Z,70.18
2023-03-26T16:03:15.034Z,70.52
2023-03-26T16:08:53.245Z,71.15
2023-03-26T16:14:41.857Z,70.16
2023-03-26T16:20:09.294Z,69.39
2023-03-26T16:25:26.950Z,69.87
2023-03-26T16:30:35.117Z,70.07
2023-03-26T16:35:47.902Z,70.44
2023-03-26T16:41:06.530Z,70.23
2023-03-26T16:46:36.823Z,70.16
2023-03-26T16:52:35.184Z,70.47
2023-03-26T16:57:52.975Z,71.21
2023-03-26T17:03:06.410Z,71.77
2023-03-26T17:08:35.652Z,72.48
2023-03-26T17:14:01.137Z,72.88
2023-03-26T17:19:20.681Z,73.20
2023-03-26T17:24:58.965Z,73.61
2023-03-26T17:31:15.963Z,74.05
2023-03-26T17:36:31.252Z,74.41
2023-03-26T17:42:26.293Z,75.50
2023-03-26T17:47:47.500Z,76.17
2023-03-26T17:53:07.501Z,76.55
2023-03-26T17:58:37.374Z,77.39
2023-03-26T18:03:49.468Z,77.96
2023-03-26T18:08:55.363Z,78.41
2023-03-26T18:14:57.320Z,78.75
2023-03-26T18:20:06.763Z,79.23
2023-03-26T18:25:25.362Z,79.83
2023-03-26T18:30:31.235Z,80.26
2023-03-26T18:35:44.554Z,81.05
2023-03-26T18:40:50.030Z,81.32
2023-03-26T18:45:55.986Z,82.00
2023-03-26T18:51:25.851Z,82.24
2023-03-26T18:56:36.130Z,82.87
2023-03-26T19:01:42.148Z,83.23
2023-03-26T19:06:46.655Z,83.29
2023-03-26T19:11:55.991Z,83.98
2023-03-26T19:17:43.033Z,83.78
2023-03-26T19:22:57.304Z,83.57
2023-03-26T19:28:01.295Z,83.24
2023-03-26T19:33:14.762Z,83.86
2023-03-26T19:38:49.010Z,84.21
2023-03-26T19:43:59.833Z,84.64
2023-03-26T19:49:07.048Z,84.91
2023-03-26T19:54:16.981Z,84.78
2023-03-26T19:59:33.721Z,85.43
2023-03-26T20:05:09.497Z,85.52
2023-03-26T20:10:42.814Z,85.19
2023-03-26T20:16:10.810Z,84.96
2023-03-26T20:21:25.043Z,85.58
2023-03-26T20:26:38.648Z,86.02
2023-03-26T20:31:43.138Z,86.56
2023-03-26T20:37:25.558Z,86.53
2023-03-26T20:42:32.075Z,86.33
2023-03-26T20:47:59.530Z,86.09
2023-03-26T20:53:23.828Z,85.78
2023-03-26T21:04:36.860Z,86.68
2023-03-26T21:09:40.931Z,87.65
2023-03-26T21:15:22.504Z,88.33
2023-03-26T21:21:20.125Z,89.26
2023-03-26T21:26:55.752Z,90.10
2023-03-26T21:32:36.585Z,89.71
2023-03-26T21:38:01.692Z,89.55
2023-03-26T21:43:43.725Z,89.17
2023-03-26T21:49:13.032Z,88.82
2023-03-26T21:55:04.460Z,89.25
2023-03-26T22:00:23.644Z,88.47
2023-03-26T22:06:03.717Z,88.43
2023-03-26T22:11:17.385Z,88.97
2023-03-26T22:16:32.016Z,88.57
2023-03-26T22:21:44.348Z,88.54
2023-03-26T22:27:05.811Z,88.20
2023-03-26T22:32:33.219Z,88.24
2023-03-26T22:38:01.271Z,87.59
2023-03-26T22:43:05.027Z,88.09
2023-03-26T22:48:08.654Z,88.96
2023-03-26T22:53:33.424Z,89.58
2023-03-26T22:58:43.712Z,89.68
2023-03-26T23:03:54.080Z,90.42
2023-03-26T23:08:57.742Z,90.52
2023-03-26T23:14:01.841Z,90.16
2023-03-26T23:19:08.756Z,90.27
2023-03-26T23:25:05.471Z,90.09
2023-03-26T23:30:52.974Z,90.91
2023-03-26T23:36:00.103Z,91.28
2023-03-26T23:41:44.145Z,90.96
2023-03-26T23:47:16.793Z,91.25
2023-03-26T23:53:10.781Z,91.73
2023-03-26T23:58:21.234Z,91.56
